Time;durP1;ratioP1;P1;durP2;ratioP2;P2;SDS_P1;SDS_P2;PMS_P1;PMS_P2;Temp;Humidity;BMP_temperature;BMP_pressure;BME280_temperature;BME280_humidity;BME280_pressure;Samples;Min_cycle;Max_cycle;Signal;HPM_P1;HPM_P2
2022/12/24 00:00:33;;;;;;;21.23;3.60;;;11.00;99.90;;;;;;5050188;28;20029;-51
2022/12/24 00:02:59;;;;;;;29.73;4.93;;;11.10;99.90;;;;;;5050440;28;20032;-52
2022/12/24 00:05:25;;;;;;;24.47;3.97;;;11.10;99.90;;;;;;5050862;28;20039;-51
2022/12/24 00:07:51;;;;;;;28.37;5.27;;;11.00;99.90;;;;;;5054358;28;20082;-49
2022/12/24 00:10:17;;;;;;;25.67;3.83;;;11.00;99.90;;;;;;5054315;28;20123;-51
2022/12/24 00:12:42;;;;;;;26.67;4.73;;;11.00;99.90;;;;;;5054285;28;20029;-52
2022/12/24 00:15:08;;;;;;;28.07;3.90;;;11.00;99.90;;;;;;5054578;28;20067;-51
2022/12/24 00:17:34;;;;;;;25.90;3.93;;;10.90;99.90;;;;;;5054371;28;20033;-52
2022/12/24 00:20:00;;;;;;;30.13;4.27;;;10.90;99.90;;;;;;5054124;28;20478;-50
2022/12/24 00:22:25;;;;;;;26.73;5.10;;;10.90;99.90;;;;;;5054157;28;20021;-49
2022/12/24 00:24:51;;;;;;;22.70;4.27;;;10.80;99.90;;;;;;5054169;28;20444;-51
2022/12/24 00:27:17;;;;;;;25.67;3.73;;;10.80;99.90;;;;;;5053957;28;20112;-52
2022/12/24 00:29:43;;;;;;;26.17;3.80;;;10.80;99.90;;;;;;5052567;28;20033;-51
2022/12/24 00:32:09;;;;;;;27.63;4.10;;;10.80;99.90;;;;;;5054080;28;20024;-48
2022/12/24 00:34:38;;;;;;;25.17;4.33;;;10.80;99.90;;;;;;5053987;28;20037;-51
2022/12/24 00:37:05;;;;;;;25.15;4.40;;;10.70;99.90;;;;;;5053920;28;20040;-52
2022/12/24 00:39:31;;;;;;;28.50;3.57;;;10.70;99.90;;;;;;5053535;28;20112;-53
2022/12/24 00:41:57;;;;;;;28.00;4.47;;;10.70;99.90;;;;;;5053498;28;20070;-52
2022/12/24 00:44:22;;;;;;;32.07;4.17;;;10.70;99.90;;;;;;5053772;28;20425;-51
2022/12/24 00:46:48;;;;;;;23.13;3.87;;;10.60;99.90;;;;;;5053741;28;20318;-54
2022/12/24 00:49:14;;;;;;;28.30;4.60;;;10.60;99.90;;;;;;5053616;28;20032;-52
2022/12/24 00:51:40;;;;;;;27.43;4.10;;;10.60;99.90;;;;;;5053526;28;20052;-50
2022/12/24 00:54:06;;;;;;;30.97;4.20;;;10.50;99.90;;;;;;5053494;28;20071;-50
2022/12/24 00:56:32;;;;;;;34.03;5.63;;;10.50;99.90;;;;;;5053234;28;20051;-52
2022/12/24 00:58:58;;;;;;;31.30;4.10;;;10.50;99.90;;;;;;5053253;28;20032;-52
2022/12/24 01:01:24;;;;;;;26.80;4.33;;;10.50;99.90;;;;;;5053271;28;20028;-52
2022/12/24 01:03:51;;;;;;;28.17;4.00;;;10.50;99.90;;;;;;5053418;28;20025;-51
2022/12/24 01:06:19;;;;;;;28.50;4.00;;;10.50;99.90;;;;;;5053542;28;20033;-49
2022/12/24 01:08:45;;;;;;;25.85;3.33;;;10.40;99.90;;;;;;5053133;28;20029;-50
2022/12/24 01:11:12;;;;;;;25.70;4.20;;;10.30;99.90;;;;;;5053177;28;20039;-51
2022/12/24 01:13:38;;;;;;;34.37;5.20;;;10.30;99.90;;;;;;5053090;28;20033;-51
2022/12/24 01:16:13;;;;;;;26.37;5.37;;;10.30;99.90;;;;;;5053186;28;20033;-51
2022/12/24 01:18:39;;;;;;;27.43;4.30;;;10.30;99.90;;;;;;5052781;28;20029;-52
2022/12/24 01:21:04;;;;;;;35.77;4.80;;;10.40;99.90;;;;;;5052857;28;20056;-49
2022/12/24 01:23:30;;;;;;;25.40;4.37;;;10.40;99.90;;;;;;5052808;28;20039;-50
2022/12/24 01:26:00;;;;;;;32.50;4.23;;;10.40;99.90;;;;;;5051712;28;20064;-54
2022/12/24 01:28:26;;;;;;;32.93;4.73;;;10.40;99.90;;;;;;5052952;28;20033;-52
2022/12/24 01:30:52;;;;;;;36.17;5.50;;;10.30;99.90;;;;;;5052635;28;20032;-52
2022/12/24 01:33:18;;;;;;;31.33;4.30;;;10.30;99.90;;;;;;5052699;28;20043;-50
2022/12/24 01:35:43;;;;;;;28.50;4.17;;;10.20;99.90;;;;;;5052787;28;20036;-49
2022/12/24 01:38:10;;;;;;;31.20;4.53;;;10.20;99.90;;;;;;5052340;28;20037;-47
2022/12/24 01:43:27;;;;;;;26.58;4.13;;;10.20;99.90;;;;;;5052474;28;20412;-46
2022/12/24 01:46:06;;;;;;;25.17;4.57;;;10.10;99.90;;;;;;5052620;28;20055;-50
2022/12/24 01:48:45;;;;;;;20.75;3.35;;;10.00;99.90;;;;;;5052180;28;20272;-49
2022/12/24 01:51:17;;;;;;;35.17;5.27;;;10.00;99.90;;;;;;5052478;28;20213;-51
2022/12/24 01:53:47;;;;;;;27.50;4.20;;;10.10;99.90;;;;;;5052417;28;20385;-49
2022/12/24 01:56:13;;;;;;;31.55;4.07;;;10.10;99.90;;;;;;5052288;28;20492;-48
2022/12/24 01:58:43;;;;;;;25.83;4.30;;;10.10;99.90;;;;;;5051889;28;20040;-51
2022/12/24 02:01:09;;;;;;;30.30;4.97;;;10.10;99.90;;;;;;5052073;28;20071;-49
2022/12/24 02:03:35;;;;;;;35.07;4.53;;;10.00;99.90;;;;;;5052067;28;20044;-48
2022/12/24 02:06:01;;;;;;;22.33;4.10;;;10.00;99.90;;;;;;5052439;28;20029;-51
2022/12/24 02:08:38;;;;;;;31.73;5.20;;;9.90;99.90;;;;;;5051925;28;20067;-51
2022/12/24 02:11:20;;;;;;;28.43;4.60;;;9.90;99.90;;;;;;5052022;28;20029;-49
2022/12/24 02:13:57;;;;;;;27.70;4.80;;;9.80;99.90;;;;;;5052235;28;20033;-48
2022/12/24 02:16:36;;;;;;;30.07;4.87;;;9.90;99.90;;;;;;5051876;28;20139;-50
2022/12/24 02:19:32;;;;;;;31.63;5.50;;;9.90;99.90;;;;;;5052013;28;20402;-51
2022/12/24 02:22:12;;;;;;;26.27;4.30;;;9.90;99.90;;;;;;5051579;28;20028;-50
2022/12/24 02:24:46;;;;;;;;;;;10.00;99.90;;;;;;5052389;28;20033;-47
2022/12/24 02:27:24;;;;;;;36.10;5.47;;;9.90;99.90;;;;;;5051710;28;20269;-48
2022/12/24 02:30:15;;;;;;;30.67;4.93;;;9.90;99.90;;;;;;5051119;28;20021;-51
2022/12/24 02:33:11;;;;;;;29.67;4.67;;;9.90;99.90;;;;;;5051653;28;20511;-51
2022/12/24 02:36:05;;;;;;;37.33;4.87;;;9.90;99.90;;;;;;5051695;28;20539;-48
2022/12/24 02:38:48;;;;;;;35.90;5.77;;;9.90;99.90;;;;;;5051186;28;20036;-47
2022/12/24 02:44:18;;;;;;;36.73;5.40;;;9.80;99.90;;;;;;5009681;28;20068;-52
2022/12/24 02:46:45;;;;;;;31.03;5.10;;;9.80;99.90;;;;;;5011600;28;20081;-53
2022/12/24 02:49:12;;;;;;;29.30;5.17;;;9.80;99.90;;;;;;5011486;28;20117;-52
2022/12/24 02:51:38;;;;;;;27.27;4.40;;;9.70;99.90;;;;;;5011635;28;20026;-54
2022/12/24 02:54:04;;;;;;;40.90;5.03;;;9.80;99.90;;;;;;5011997;28;20379;-54
2022/12/24 02:56:39;;;;;;;35.73;4.83;;;9.80;99.90;;;;;;5011314;28;20442;-52
2022/12/24 02:59:21;;;;;;;30.47;4.67;;;9.70;99.90;;;;;;5011408;28;20099;-53
2022/12/24 03:02:11;;;;;;;28.37;4.17;;;9.60;99.90;;;;;;5011441;28;20482;-51
2022/12/24 03:04:39;;;;;;;;;;;9.50;99.90;;;;;;5012023;28;20036;-53
2022/12/24 03:07:09;;;;;;;;;;;9.50;99.90;;;;;;5011714;28;19909;-53
2022/12/24 03:09:35;;;;;;;;;;;9.50;99.90;;;;;;5011835;28;19963;-52
2022/12/24 03:12:07;;;;;;;;;;;9.50;99.90;;;;;;5011961;28;19913;-50
2022/12/24 03:14:33;;;;;;;;;;;9.60;99.90;;;;;;5011950;28;19914;-52
2022/12/24 03:17:00;;;;;;;;;;;9.50;99.90;;;;;;5011698;28;19921;-53
2022/12/24 03:19:26;;;;;;;;;;;9.60;99.90;;;;;;5011498;28;19917;-52
2022/12/24 03:21:53;;;;;;;;;;;9.60;99.90;;;;;;5011624;28;20381;-53
2022/12/24 03:24:19;;;;;;;;;;;9.60;99.90;;;;;;5011695;28;20408;-52
2022/12/24 03:26:45;;;;;;;;;;;9.60;99.90;;;;;;5011897;28;19949;-53
2022/12/24 03:29:11;;;;;;;;;;;9.50;99.90;;;;;;5011525;28;19909;-50
2022/12/24 03:31:44;;;;;;;;;;;9.50;99.90;;;;;;5011648;28;20374;-53
2022/12/24 03:34:11;;;;;;;;;;;9.50;99.90;;;;;;5011476;28;19909;-50
2022/12/24 03:36:37;;;;;;;;;;;9.60;99.90;;;;;;5011637;28;20282;-52
2022/12/24 03:39:03;;;;;;;;;;;9.70;99.90;;;;;;5011293;28;19913;-49
2022/12/24 03:41:29;;;;;;;;;;;9.70;99.90;;;;;;5010700;28;19917;-50
2022/12/24 03:43:55;;;;;;;;;;;9.80;99.90;;;;;;5010617;28;19913;-51
2022/12/24 03:46:20;;;;;;;;;;;9.70;99.90;;;;;;5010488;28;20274;-55
2022/12/24 03:48:46;;;;;;;;;;;9.80;99.90;;;;;;5010292;28;20007;-49
2022/12/24 03:51:19;;;;;;;;;;;9.80;99.90;;;;;;5010536;28;19964;-51
2022/12/24 03:53:45;;;;;;;;;;;9.90;99.90;;;;;;5010420;28;19909;-51
2022/12/24 03:56:10;;;;;;;;;;;9.90;99.90;;;;;;5010606;28;19910;-50
2022/12/24 03:58:36;;;;;;;;;;;9.90;99.90;;;;;;5010101;28;19913;-54
2022/12/24 04:01:02;;;;;;;;;;;9.90;99.90;;;;;;5009092;28;19953;-52
2022/12/24 04:03:27;;;;;;;;;;;9.90;99.90;;;;;;5010335;28;20000;-51
2022/12/24 04:06:02;;;;;;;;;;;9.90;99.90;;;;;;5010771;28;20372;-52
2022/12/24 04:08:27;;;;;;;;;;;9.90;99.90;;;;;;5010123;28;20010;-51
2022/12/24 04:10:53;;;;;;;;;;;9.90;99.90;;;;;;5010206;28;20370;-53
2022/12/24 04:13:19;;;;;;;;;;;10.00;99.90;;;;;;5010679;28;19909;-52
2022/12/24 04:15:44;;;;;;;;;;;10.00;99.90;;;;;;5010281;28;20259;-50
2022/12/24 04:18:10;;;;;;;;;;;10.10;99.90;;;;;;5010172;28;19909;-53
2022/12/24 04:20:35;;;;;;;;;;;10.10;99.90;;;;;;5010172;28;20305;-52
2022/12/24 04:23:01;;;;;;;;;;;10.10;99.90;;;;;;5010202;28;19913;-51
2022/12/24 04:25:26;;;;;;;;;;;10.20;99.90;;;;;;5010234;28;20258;-51
2022/12/24 04:27:52;;;;;;;;;;;10.20;99.90;;;;;;5010020;28;19952;-51
2022/12/24 04:30:18;;;;;;;;;;;10.20;99.90;;;;;;5009849;28;20011;-52
2022/12/24 04:32:43;;;;;;;;;;;10.20;99.90;;;;;;5010117;28;19914;-51
2022/12/24 04:35:09;;;;;;;;;;;10.20;99.90;;;;;;5010019;28;20293;-52
2022/12/24 04:37:34;;;;;;;;;;;10.20;99.90;;;;;;5009928;28;19989;-51
2022/12/24 04:40:00;;;;;;;;;;;10.20;99.90;;;;;;5009811;28;20282;-51
2022/12/24 04:42:26;;;;;;;;;;;10.30;99.90;;;;;;4971685;28;1111173;-51
2022/12/24 04:44:51;;;;;;;;;;;10.30;99.90;;;;;;5010855;28;20007;-51
2022/12/24 04:47:17;;;;;;;;;;;10.30;99.90;;;;;;5010716;28;19920;-54
2022/12/24 04:49:42;;;;;;;;;;;10.30;99.90;;;;;;5010574;28;20428;-52
2022/12/24 04:52:08;;;;;;;;;;;10.30;99.90;;;;;;5012071;28;19997;-52
2022/12/24 04:54:33;;;;;;;;;;;10.30;99.90;;;;;;5014641;28;19909;-49
2022/12/24 04:56:59;;;;;;;;;;;10.30;99.90;;;;;;5014215;28;19959;-53
2022/12/24 04:59:25;;;;;;;;;;;10.40;99.90;;;;;;5014082;28;19911;-50
2022/12/24 05:01:51;;;;;;;;;;;10.40;99.90;;;;;;5014216;28;20278;-53
2022/12/24 05:04:16;;;;;;;;;;;10.30;99.90;;;;;;5014166;28;19948;-50
2022/12/24 05:06:42;;;;;;;;;;;10.30;99.90;;;;;;5014141;28;19909;-48
2022/12/24 05:09:08;;;;;;;;;;;10.30;99.90;;;;;;5014025;28;20285;-49
2022/12/24 05:11:33;;;;;;;;;;;10.40;99.90;;;;;;5014116;28;19913;-52
2022/12/24 05:13:59;;;;;;;;;;;10.30;99.90;;;;;;5014068;28;19910;-51
2022/12/24 05:16:24;;;;;;;;;;;10.40;99.90;;;;;;5013814;28;19909;-51
2022/12/24 05:18:50;;;;;;;;;;;10.30;99.90;;;;;;5013996;28;19909;-49
2022/12/24 05:21:17;;;;;;;;;;;10.30;99.90;;;;;;5013695;28;19913;-50
2022/12/24 05:26:27;;;;;;;;;;;10.30;99.90;;;;;;5013697;28;19916;-50
2022/12/24 05:28:54;;;;;;;;;;;10.30;99.90;;;;;;5013507;28;19909;-50
2022/12/24 05:31:21;;;;;;;;;;;10.30;99.90;;;;;;5013806;28;19983;-53
2022/12/24 05:33:46;;;;;;;;;;;10.30;99.90;;;;;;5013523;28;19910;-50
2022/12/24 05:36:12;;;;;;;;;;;10.30;99.90;;;;;;5013706;28;19909;-53
2022/12/24 05:38:38;;;;;;;;;;;10.20;99.90;;;;;;5013295;28;20120;-49
2022/12/24 05:41:04;;;;;;;;;;;10.20;99.90;;;;;;5013448;28;19922;-52
2022/12/24 05:43:30;;;;;;;;;;;10.20;99.90;;;;;;5013382;28;20430;-51
2022/12/24 05:46:02;;;;;;;;;;;10.20;99.90;;;;;;5013654;28;20294;-51
2022/12/24 05:48:28;;;;;;;;;;;10.30;99.90;;;;;;5013494;28;19913;-51
2022/12/24 05:50:54;;;;;;;;;;;10.30;99.90;;;;;;5013248;28;20298;-50
2022/12/24 05:53:20;;;;;;;;;;;10.30;99.90;;;;;;5013277;28;19909;-50
2022/12/24 05:55:46;;;;;;;;;;;10.30;99.90;;;;;;5013251;28;19910;-53
2022/12/24 05:58:11;;;;;;;;;;;10.30;99.90;;;;;;5013068;28;19909;-52
2022/12/24 06:00:37;;;;;;;;;;;10.30;99.90;;;;;;5012873;28;20267;-53
2022/12/24 06:03:02;;;;;;;;;;;10.30;99.90;;;;;;5012504;28;19948;-50
2022/12/24 06:05:28;;;;;;;;;;;10.30;99.90;;;;;;5012912;28;19913;-53
2022/12/24 06:07:54;;;;;;;;;;;10.30;99.90;;;;;;5012837;28;19957;-51
2022/12/24 06:10:19;;;;;;;;;;;10.30;99.90;;;;;;5012798;28;19916;-49
2022/12/24 06:12:45;;;;;;;;;;;10.30;99.90;;;;;;5011604;28;19913;-49
2022/12/24 06:15:10;;;;;;;;;;;10.30;99.90;;;;;;5013278;28;19913;-52
2022/12/24 06:17:36;;;;;;;;;;;10.20;99.90;;;;;;5012672;28;19910;-50
2022/12/24 06:20:02;;;;;;;;;;;10.20;99.90;;;;;;5012569;28;20442;-52
2022/12/24 06:22:28;;;;;;;;;;;10.20;99.90;;;;;;5012790;28;20428;-52
2022/12/24 06:24:53;;;;;;;;;;;10.30;99.90;;;;;;5012678;28;20024;-52
2022/12/24 06:27:19;;;;;;;;;;;10.20;99.90;;;;;;5012524;28;19916;-50
2022/12/24 06:29:45;;;;;;;;;;;10.20;99.90;;;;;;5012528;28;19917;-51
2022/12/24 06:32:10;;;;;;;;;;;10.20;99.90;;;;;;5012549;28;19909;-51
2022/12/24 06:34:36;;;;;;;;;;;10.20;99.90;;;;;;5012682;28;19917;-51
2022/12/24 06:37:02;;;;;;;;;;;10.20;99.90;;;;;;5012262;28;20365;-52
2022/12/24 06:39:27;;;;;;;;;;;10.30;99.90;;;;;;5012207;28;19909;-52
2022/12/24 06:41:53;;;;;;;;;;;10.20;99.90;;;;;;5012514;28;19941;-53
2022/12/24 06:44:18;;;;;;;;;;;10.20;99.90;;;;;;5012660;28;20419;-52
2022/12/24 06:46:44;;;;;;;;;;;10.20;99.90;;;;;;5012244;28;19910;-52
2022/12/24 06:49:09;;;;;;;;;;;10.10;99.90;;;;;;5012178;28;19952;-49
2022/12/24 06:51:35;;;;;;;;;;;10.10;99.90;;;;;;5012333;28;20004;-50
2022/12/24 06:54:01;;;;;;;;;;;10.10;99.90;;;;;;5012083;28;19909;-50
2022/12/24 06:56:26;;;;;;;;;;;10.10;99.90;;;;;;5012033;28;19913;-51
2022/12/24 06:58:52;;;;;;;;;;;10.00;99.90;;;;;;5012033;28;20370;-51
2022/12/24 07:01:19;;;;;;;;;;;10.10;99.90;;;;;;5012038;28;19939;-50
2022/12/24 07:03:44;;;;;;;;;;;10.10;99.90;;;;;;5012111;28;20305;-54
2022/12/24 07:06:15;;;;;;;;;;;10.20;99.90;;;;;;5012087;28;20007;-51
2022/12/24 07:08:40;;;;;;;;;;;10.10;99.90;;;;;;5011596;28;19913;-51
2022/12/24 07:11:06;;;;;;;;;;;10.10;99.90;;;;;;5011899;28;19924;-53
2022/12/24 07:13:33;;;;;;;;;;;10.10;99.90;;;;;;5011715;28;19917;-53
2022/12/24 07:15:59;;;;;;;;;;;10.20;99.90;;;;;;5011780;28;19936;-52
2022/12/24 07:18:25;;;;;;;;;;;10.20;99.90;;;;;;5011733;28;20190;-52
2022/12/24 07:20:50;;;;;;;;;;;10.30;99.90;;;;;;5011521;28;19913;-53
2022/12/24 07:23:16;;;;;;;;;;;10.20;99.90;;;;;;5010327;28;19916;-55
2022/12/24 07:25:42;;;;;;;;;;;10.20;99.90;;;;;;5011816;28;19913;-55
2022/12/24 07:28:08;;;;;;;;;;;10.10;99.90;;;;;;5011669;28;20350;-55
2022/12/24 07:30:33;;;;;;;;;;;10.10;99.90;;;;;;5011425;28;19916;-56
2022/12/24 07:32:59;;;;;;;;;;;10.10;99.90;;;;;;5011564;28;19909;-55
2022/12/24 07:35:24;;;;;;;;;;;10.10;99.90;;;;;;5011585;28;19910;-54
2022/12/24 07:37:50;;;;;;;;;;;10.00;99.90;;;;;;5011285;28;19910;-55
2022/12/24 07:40:15;;;;;;;;;;;10.10;99.90;;;;;;5011229;28;20273;-53
2022/12/24 07:42:41;;;;;;;;;;;10.00;99.90;;;;;;5011337;28;19967;-54
2022/12/24 07:45:07;;;;;;;;;;;9.90;99.90;;;;;;5011501;28;19956;-52
2022/12/24 07:47:33;;;;;;;;;;;9.90;99.90;;;;;;5011266;28;20020;-53
2022/12/24 07:49:58;;;;;;;;;;;9.90;99.90;;;;;;5011038;28;19913;-50
2022/12/24 07:52:24;;;;;;;;;;;9.90;99.90;;;;;;5011258;28;19925;-49
2022/12/24 07:54:49;;;;;;;;;;;9.90;99.90;;;;;;5011508;28;20426;-53
2022/12/24 07:57:15;;;;;;;;;;;9.90;99.90;;;;;;5011340;28;19909;-51
2022/12/24 07:59:41;;;;;;;;;;;9.90;99.90;;;;;;5011200;28;20270;-54
2022/12/24 08:02:08;;;;;;;;;;;9.90;99.90;;;;;;5011227;28;19916;-52
2022/12/24 08:04:35;;;;;;;;;;;10.00;99.90;;;;;;5011350;28;20293;-51
2022/12/24 08:07:02;;;;;;;;;;;10.10;99.90;;;;;;5011129;28;19913;-52
2022/12/24 08:09:29;;;;;;;;;;;10.10;99.90;;;;;;5011061;28;19909;-54
2022/12/24 08:11:55;;;;;;;;;;;10.00;99.90;;;;;;5009924;28;20354;-52
2022/12/24 08:14:21;;;;;;;;;;;10.00;99.90;;;;;;5011447;28;19909;-52
2022/12/24 08:16:46;;;;;;;;;;;10.00;99.90;;;;;;5011040;28;19988;-53
2022/12/24 08:19:12;;;;;;;;;;;10.00;99.90;;;;;;5010955;28;19909;-51
2022/12/24 08:21:37;;;;;;;;;;;10.00;99.90;;;;;;5009743;28;20285;-49
2022/12/24 08:24:03;;;;;;;;;;;10.00;99.90;;;;;;5011102;28;19909;-51
2022/12/24 08:26:29;;;;;;;;;;;10.00;99.90;;;;;;5011298;28;19919;-51
2022/12/24 08:28:54;;;;;;;;;;;10.00;99.90;;;;;;5014756;28;19916;-53
2022/12/24 08:31:20;;;;;;;;;;;10.00;99.90;;;;;;5014879;28;19996;-52
2022/12/24 08:33:45;;;;;;;;;;;10.10;99.90;;;;;;5014755;28;19992;-51
2022/12/24 08:36:11;;;;;;;;;;;10.10;99.90;;;;;;5014770;28;19916;-52
2022/12/24 08:38:37;;;;;;;;;;;10.10;99.90;;;;;;5014473;28;19971;-55
2022/12/24 08:41:02;;;;;;;;;;;10.10;99.90;;;;;;5014652;28;19913;-50
2022/12/24 08:43:28;;;;;;;;;;;10.20;99.90;;;;;;5014422;28;19921;-50
2022/12/24 08:45:53;;;;;;;;;;;10.20;99.90;;;;;;5014682;28;20362;-51
2022/12/24 08:48:19;;;;;;;;;;;10.30;99.90;;;;;;5014370;28;19909;-54
2022/12/24 08:50:45;;;;;;;;;;;10.30;99.90;;;;;;5014170;28;19936;-53
2022/12/24 08:53:11;;;;;;;;;;;10.30;99.90;;;;;;5014631;28;19995;-52
2022/12/24 08:55:36;;;;;;;;;;;10.30;99.90;;;;;;5014392;28;19913;-49
2022/12/24 08:58:02;;;;;;;;;;;10.30;99.90;;;;;;5014180;28;19910;-50
2022/12/24 09:00:28;;;;;;;;;;;10.30;99.90;;;;;;5013983;28;20089;-51
2022/12/24 09:02:54;;;;;;;;;;;10.30;99.90;;;;;;5014173;28;20000;-52
2022/12/24 09:05:20;;;;;;;;;;;10.30;99.90;;;;;;5014117;28;20263;-53
2022/12/24 09:07:45;;;;;;;;;;;10.40;99.90;;;;;;5014063;28;19916;-50
2022/12/24 09:10:11;;;;;;;;;;;10.40;99.90;;;;;;5014136;28;19913;-51
2022/12/24 09:12:37;;;;;;;;;;;10.30;99.90;;;;;;5013915;28;19912;-53
2022/12/24 09:15:02;;;;;;;;;;;10.40;99.90;;;;;;5014052;28;19909;-50
2022/12/24 09:17:28;;;;;;;;;;;10.40;99.90;;;;;;5013801;28;20371;-50
2022/12/24 09:19:54;;;;;;;;;;;10.50;99.90;;;;;;5013652;28;19909;-53
2022/12/24 09:22:19;;;;;;;;;;;10.50;99.90;;;;;;5013856;28;19910;-53
2022/12/24 09:24:45;;;;;;;;;;;10.50;99.90;;;;;;5014092;28;19917;-52
2022/12/24 09:27:11;;;;;;;;;;;10.50;99.90;;;;;;5028730;28;19917;-50
2022/12/24 09:29:39;;;;;;;;;;;10.60;99.90;;;;;;5013642;28;20023;-53
2022/12/24 09:32:05;;;;;;;;;;;10.60;99.90;;;;;;5013726;28;19909;-50
2022/12/24 09:34:31;;;;;;;;;;;10.70;99.90;;;;;;5013576;28;19910;-52
2022/12/24 09:36:56;;;;;;;;;;;10.80;99.90;;;;;;5013492;28;20008;-53
2022/12/24 09:39:22;;;;;;;;;;;10.80;99.90;;;;;;5012190;28;19961;-52
2022/12/24 09:41:57;;;;;;;;;;;10.80;99.90;;;;;;5013317;28;20170;-51
2022/12/24 09:44:42;;;;;;;;;;;10.90;99.90;;;;;;5013458;28;19913;-54
2022/12/24 09:47:31;;;;;;;;;;;10.90;99.90;;;;;;5013170;28;19909;-49
2022/12/24 09:49:58;;;;;;;;;;;11.00;99.90;;;;;;5012729;28;19917;-54
2022/12/24 09:52:34;;;;;;;;;;;11.10;99.90;;;;;;5013415;28;19960;-51
2022/12/24 09:55:04;;;;;;;;;;;11.30;99.90;;;;;;5013376;28;20328;-49
2022/12/24 09:57:34;;;;;;;;;;;11.50;99.90;;;;;;5012877;28;19990;-52
2022/12/24 10:00:01;;;;;;;;;;;11.70;99.90;;;;;;5013176;28;19919;-51
2022/12/24 10:02:26;;;;;;;;;;;11.70;99.90;;;;;;5013180;28;19917;-52
2022/12/24 10:04:53;;;;;;;;;;;11.70;99.90;;;;;;5013191;28;20308;-53
2022/12/24 10:07:27;;;;;;;;;;;11.60;99.90;;;;;;5012886;28;19940;-49
2022/12/24 10:10:12;;;;;;;;;;;11.60;99.90;;;;;;5012722;28;19909;-51
2022/12/24 10:13:01;;;;;;;;;;;11.60;99.90;;;;;;5012950;28;19909;-53
2022/12/24 10:15:29;;;;;;;;;;;11.70;99.90;;;;;;5028026;28;20441;-53
2022/12/24 10:18:03;;;;;;;;;;;11.70;99.90;;;;;;5012632;28;19909;-50
2022/12/24 10:20:37;;;;;;;;;;;11.90;99.90;;;;;;5012535;28;20238;-52
2022/12/24 10:23:03;;;;;;;;;;;12.00;99.90;;;;;;5011653;28;19909;-51
2022/12/24 10:25:36;;;;;;;;;;;12.00;99.90;;;;;;5012740;28;20354;-53
2022/12/24 10:28:04;;;;;;;;;;;12.00;99.90;;;;;;5012586;28;19909;-52
2022/12/24 10:30:30;;;;;;;;;;;12.00;99.90;;;;;;5012406;28;19906;-55
2022/12/24 10:32:56;;;;;;;;;;;12.10;99.90;;;;;;5012494;28;19909;-55
2022/12/24 10:35:24;;;;;;;;;;;12.40;99.90;;;;;;5012493;28;20373;-53
2022/12/24 10:37:51;;;;;;;;;;;12.70;99.90;;;;;;5012447;28;19909;-51
2022/12/24 10:40:35;;;;;;;;;;;12.60;99.90;;;;;;5012201;28;19936;-50
2022/12/24 10:43:01;;;;;;;;;;;12.60;99.90;;;;;;5012289;28;19917;-52
2022/12/24 10:45:33;;;;;;;;;;;12.70;99.90;;;;;;5012267;28;19992;-52
2022/12/24 10:48:02;;;;;;;;;;;12.70;99.90;;;;;;5012212;28;19920;-51
2022/12/24 10:50:47;;;;;;;;;;;12.70;99.90;;;;;;5011827;28;20384;-53
2022/12/24 10:53:23;;;;;;;;;;;12.70;99.90;;;;;;5012326;28;19909;-52
2022/12/24 10:55:49;;;;;;;;;;;12.60;99.90;;;;;;5012183;28;19958;-51
2022/12/24 10:58:16;;;;;;;;;;;12.70;99.90;;;;;;5012095;28;19909;-53
2022/12/24 11:00:48;;;;;;;;;;;12.70;99.90;;;;;;5011861;28;20012;-52
2022/12/24 11:03:16;;;;;;;;;;;12.70;99.90;;;;;;5012072;28;19916;-51
2022/12/24 11:05:42;;;;;;;;;;;12.60;99.90;;;;;;5012147;28;20004;-53
2022/12/24 11:08:16;;;;;;;;;;;12.50;99.90;;;;;;5012241;28;20001;-51
2022/12/24 11:10:44;;;;;;;;;;;12.30;99.90;;;;;;5011855;28;20015;-53
2022/12/24 11:13:23;;;;;;;;;;;12.20;99.90;;;;;;5012017;28;19932;-54
2022/12/24 11:15:57;;;;;;;;;;;12.30;99.90;;;;;;5011884;28;19913;-50
2022/12/24 11:18:23;;;;;;;;;;;12.30;99.90;;;;;;5011710;28;19910;-52
2022/12/24 11:20:51;;;;;;;;;;;12.30;99.90;;;;;;5011410;28;19920;-51
2022/12/24 11:23:16;;;;;;;;;;;12.20;99.90;;;;;;5011789;28;20374;-53
2022/12/24 11:25:47;;;;;;;;;;;12.20;99.90;;;;;;5011781;28;19915;-52
2022/12/24 11:28:20;;;;;;;;;;;12.10;99.90;;;;;;5011640;28;19955;-53
2022/12/24 11:30:54;;;;;;;;;;;12.00;99.90;;;;;;5011331;28;19909;-52
2022/12/24 11:33:20;;;;;;;;;;;12.00;99.90;;;;;;5011472;28;19910;-51
2022/12/24 11:35:47;;;;;;;;;;;11.90;99.90;;;;;;5011631;28;19963;-50
2022/12/24 11:38:21;;;;;;;;;;;11.90;99.90;;;;;;5011372;28;20180;-53
2022/12/24 11:40:47;;;;;;;;;;;11.90;99.90;;;;;;5011452;28;19960;-53
2022/12/24 11:43:17;;;;;;;;;;;11.80;99.90;;;;;;5011351;28;20024;-49
2022/12/24 11:45:51;;;;;;;;;;;11.80;99.90;;;;;;5011396;28;19913;-53
2022/12/24 11:48:26;;;;;;;;;;;11.80;99.90;;;;;;5011350;28;19909;-53
2022/12/24 11:50:56;;;;;;;;;;;11.80;99.90;;;;;;5011172;28;19909;-53
2022/12/24 11:53:24;;;;;;;;;;;11.80;99.90;;;;;;5011328;28;20329;-50
2022/12/24 11:55:52;;;;;;;;;;;12.00;99.90;;;;;;5011795;28;19909;-53
2022/12/24 11:58:20;;;;;;;;;;;12.10;99.90;;;;;;5011083;28;19910;-54
2022/12/24 12:00:46;;;;;;;;;;;12.20;99.90;;;;;;5011022;28;19913;-52
2022/12/24 12:03:30;;;;;;;;;;;12.20;99.90;;;;;;5014480;28;19929;-54
2022/12/24 12:05:58;;;;;;;;;;;12.20;99.90;;;;;;5015344;28;20008;-51
2022/12/24 12:08:25;;;;;;;;;;;12.10;99.90;;;;;;5015218;28;19963;-54
2022/12/24 12:10:52;;;;;;;;;;;12.10;99.90;;;;;;5014908;28;19910;-52
2022/12/24 12:13:19;;;;;;;;;;;12.10;99.90;;;;;;5015290;28;20004;-52
2022/12/24 12:15:48;;;;;;;;;;;12.10;99.90;;;;;;5015296;28;19917;-54
2022/12/24 12:18:15;;;;;;;;;;;12.10;99.90;;;;;;5014950;28;19972;-52
2022/12/24 12:20:46;;;;;;;;;;;12.00;99.90;;;;;;5014877;28;20311;-53
2022/12/24 12:23:14;;;;;;;;;;;12.00;99.90;;;;;;5014965;28;20329;-53
2022/12/24 12:25:46;;;;;;;;;;;12.10;99.90;;;;;;5015221;28;19914;-52
2022/12/24 12:28:19;;;;;;;;;;;12.10;99.90;;;;;;5014739;28;19944;-54
2022/12/24 12:30:45;;;;;;;;;;;12.10;99.90;;;;;;5014682;28;19910;-53
2022/12/24 12:33:18;;;;;;;;;;;12.20;99.90;;;;;;5014763;28;19921;-50
2022/12/24 12:35:45;;;;;;;;;;;12.20;99.90;;;;;;5014768;28;19909;-54
2022/12/24 12:38:12;;;;;;;;;;;12.20;99.90;;;;;;5014762;28;19910;-52
2022/12/24 12:41:13;;;;;;;;;;;12.10;99.90;;;;;;5014582;28;19936;-54
2022/12/24 12:43:58;;;;;;;;;;;12.10;99.90;;;;;;5011884;28;20003;-49
2022/12/24 12:46:26;;;;;;;;;;;12.10;99.90;;;;;;5014370;28;20020;-54
2022/12/24 12:48:55;;;;;;;;;;;12.20;99.90;;;;;;5014585;28;20353;-51
2022/12/24 12:51:24;;;;;;;;;;;12.20;99.90;;;;;;5014486;28;19916;-51
2022/12/24 12:54:03;;;;;;;;;;;12.20;99.90;;;;;;5014369;28;19909;-53
2022/12/24 12:56:34;;;;;;;;;;;12.20;99.90;;;;;;5014130;28;19914;-51
2022/12/24 12:58:59;;;;;;;;;;;12.30;99.90;;;;;;5014224;28;20052;-50
2022/12/24 13:01:29;;;;;;;;;;;12.40;99.90;;;;;;5014262;28;20074;-53
2022/12/24 13:04:06;;;;;;;;;;;12.30;99.90;;;;;;5014276;28;19910;-54
2022/12/24 13:06:37;;;;;;;;;;;12.30;99.90;;;;;;5014005;28;19909;-52
2022/12/24 13:09:06;;;;;;;;;;;12.30;99.90;;;;;;5013907;28;20000;-49
2022/12/24 13:11:50;;;;;;;;;;;12.30;99.90;;;;;;5014111;28;20434;-53
2022/12/24 13:14:32;;;;;;;;;;;12.20;99.90;;;;;;5013926;28;20314;-53
2022/12/24 13:17:17;;;;;;;;;;;12.20;99.90;;;;;;5012603;28;19910;-49
2022/12/24 13:19:48;;;;;;;;;;;12.20;99.90;;;;;;5013786;28;19944;-53
2022/12/24 13:22:15;;;;;;;;;;;12.20;99.90;;;;;;5013899;28;19913;-52
2022/12/24 13:24:46;;;;;;;;;;;12.30;99.90;;;;;;5014189;28;19943;-51
2022/12/24 13:27:30;;;;;;;;;;;12.40;99.90;;;;;;5013700;28;19909;-53
2022/12/24 13:29:57;;;;;;;;;;;12.40;99.90;;;;;;5013535;28;19956;-56
2022/12/24 13:32:23;;;;;;;;;;;12.40;99.90;;;;;;5013686;28;19910;-52
2022/12/24 13:34:53;;;;;;;;;;;12.30;99.90;;;;;;5013622;28;19913;-52
2022/12/24 13:37:22;;;;;;;;;;;12.30;99.90;;;;;;5013298;28;19951;-50
2022/12/24 13:40:07;;;;;;;;;;;12.30;99.90;;;;;;5013350;28;19909;-52
2022/12/24 13:42:51;;;;;;;;;;;12.40;99.90;;;;;;5013325;28;20000;-53
2022/12/24 13:45:29;;;;;;;;;;;12.30;99.90;;;;;;5013744;28;19909;-54
2022/12/24 13:47:57;;;;;;;;;;;12.60;99.90;;;;;;5012272;28;20263;-52
2022/12/24 13:50:28;;;;;;;;;;;12.70;99.90;;;;;;5013241;28;19910;-52
2022/12/24 13:52:53;;;;;;;;;;;12.70;99.90;;;;;;5013268;28;19909;-52
2022/12/24 13:55:19;;;;;;;;;;;12.80;99.90;;;;;;5013291;28;19931;-49
2022/12/24 13:57:56;;;;;;;;;;;12.80;99.90;;;;;;5013173;28;19909;-50
2022/12/24 14:00:25;;;;;;;;;;;12.60;99.90;;;;;;5012929;28;19967;-50
2022/12/24 14:02:56;;;;;;;;;;;12.50;99.90;;;;;;5013159;28;19918;-49
2022/12/24 14:05:29;;;;;;;;;;;12.30;99.90;;;;;;5013109;28;20007;-50
2022/12/24 14:07:55;;;;;;;;;;;12.20;99.90;;;;;;5012962;28;19909;-50
2022/12/24 14:10:23;;;;;;;;;;;12.10;99.90;;;;;;5012745;28;19971;-51
2022/12/24 14:12:50;;;;;;;;;;;12.00;99.90;;;;;;5013021;28;20116;-54